sensor_id;sensor_type;location;lat;lon;timestamp;P1;durP1;ratioP1;P2;durP2;ratioP2
4317;SDS011;2172;53.576;9.934;2023-06-14T00:00:32;6.83;;;4.50;;
4317;SDS011;2172;53.576;9.934;2023-06-14T00:03:00;8.47;;;4.50;;
4317;SDS011;2172;53.576;9.934;2023-06-14T00:05:30;9.20;;;3.93;;
4317;SDS011;2172;53.576;9.934;2023-06-14T00:07:59;8.43;;;3.90;;
4317;SDS011;2172;53.576;9.934;2023-06-14T00:10:26;5.47;;;3.90;;
4317;SDS011;2172;53.576;9.934;2023-06-14T00:12:56;5.53;;;4.07;;
4317;SDS011;2172;53.576;9.934;2023-06-14T00:15:24;5.83;;;4.00;;
4317;SDS011;2172;53.576;9.934;2023-06-14T00:17:53;10.30;;;4.50;;
4317;SDS011;2172;53.576;9.934;2023-06-14T00:20:21;5.27;;;4.50;;
4317;SDS011;2172;53.576;9.934;2023-06-14T00:22:50;6.73;;;3.90;;
4317;SDS011;2172;53.576;9.934;2023-06-14T00:25:19;6.83;;;4.20;;
4317;SDS011;2172;53.576;9.934;2023-06-14T00:27:46;8.97;;;4.20;;
4317;SDS011;2172;53.576;9.934;2023-06-14T00:30:14;5.17;;;4.20;;
4317;SDS011;2172;53.576;9.934;2023-06-14T00:32:42;5.23;;;4.20;;
4317;SDS011;2172;53.576;9.934;2023-06-14T00:35:09;5.10;;;3.83;;
4317;SDS011;2172;53.576;9.934;2023-06-14T00:37:37;8.43;;;4.07;;
4317;SDS011;2172;53.576;9.934;2023-06-14T00:40:06;11.40;;;4.40;;
4317;SDS011;2172;53.576;9.934;2023-06-14T00:42:34;7.80;;;3.93;;
4317;SDS011;2172;53.576;9.934;2023-06-14T00:45:02;4.27;;;3.87;;
4317;SDS011;2172;53.576;9.934;2023-06-14T00:47:30;6.30;;;4.23;;
4317;SDS011;2172;53.576;9.934;2023-06-14T00:49:57;6.30;;;4.03;;
4317;SDS011;2172;53.576;9.934;2023-06-14T00:52:26;5.20;;;4.30;;
4317;SDS011;2172;53.576;9.934;2023-06-14T00:54:56;5.80;;;4.53;;
4317;SDS011;2172;53.576;9.934;2023-06-14T00:57:25;4.97;;;4.20;;
4317;SDS011;2172;53.576;9.934;2023-06-14T00:59:55;9.30;;;4.93;;
4317;SDS011;2172;53.576;9.934;2023-06-14T01:02:22;8.93;;;4.53;;
4317;SDS011;2172;53.576;9.934;2023-06-14T01:04:50;5.70;;;4.23;;
4317;SDS011;2172;53.576;9.934;2023-06-14T01:07:20;6.00;;;4.27;;
4317;SDS011;2172;53.576;9.934;2023-06-14T01:09:58;7.00;;;4.97;;
4317;SDS011;2172;53.576;9.934;2023-06-14T01:12:39;5.20;;;4.20;;
4317;SDS011;2172;53.576;9.934;2023-06-14T01:15:16;5.60;;;3.87;;
4317;SDS011;2172;53.576;9.934;2023-06-14T01:17:44;4.87;;;3.73;;
4317;SDS011;2172;53.576;9.934;2023-06-14T01:20:13;6.00;;;4.07;;
4317;SDS011;2172;53.576;9.934;2023-06-14T01:22:48;6.80;;;4.10;;
4317;SDS011;2172;53.576;9.934;2023-06-14T01:25:19;9.33;;;4.27;;
4317;SDS011;2172;53.576;9.934;2023-06-14T01:27:48;7.90;;;4.20;;
4317;SDS011;2172;53.576;9.934;2023-06-14T01:30:17;6.90;;;3.97;;
4317;SDS011;2172;53.576;9.934;2023-06-14T01:32:45;5.53;;;4.20;;
4317;SDS011;2172;53.576;9.934;2023-06-14T01:35:13;9.07;;;4.60;;
4317;SDS011;2172;53.576;9.934;2023-06-14T01:37:41;6.37;;;4.40;;
4317;SDS011;2172;53.576;9.934;2023-06-14T01:40:11;7.70;;;4.43;;
4317;SDS011;2172;53.576;9.934;2023-06-14T01:42:39;7.43;;;4.47;;
4317;SDS011;2172;53.576;9.934;2023-06-14T01:45:09;8.63;;;4.40;;
4317;SDS011;2172;53.576;9.934;2023-06-14T01:47:36;6.23;;;4.20;;
4317;SDS011;2172;53.576;9.934;2023-06-14T01:50:04;7.00;;;4.00;;
4317;SDS011;2172;53.576;9.934;2023-06-14T01:52:33;7.23;;;4.07;;
4317;SDS011;2172;53.576;9.934;2023-06-14T01:55:02;4.80;;;4.20;;
4317;SDS011;2172;53.576;9.934;2023-06-14T01:57:31;8.27;;;5.20;;
4317;SDS011;2172;53.576;9.934;2023-06-14T01:59:59;7.07;;;4.40;;
4317;SDS011;2172;53.576;9.934;2023-06-14T02:02:38;7.47;;;4.30;;
4317;SDS011;2172;53.576;9.934;2023-06-14T02:05:06;7.43;;;4.90;;
4317;SDS011;2172;53.576;9.934;2023-06-14T02:07:34;5.57;;;4.97;;
4317;SDS011;2172;53.576;9.934;2023-06-14T02:10:01;7.70;;;4.67;;
4317;SDS011;2172;53.576;9.934;2023-06-14T02:12:29;5.33;;;4.47;;
4317;SDS011;2172;53.576;9.934;2023-06-14T02:14:58;6.77;;;4.47;;
4317;SDS011;2172;53.576;9.934;2023-06-14T02:17:27;5.53;;;3.80;;
4317;SDS011;2172;53.576;9.934;2023-06-14T02:19:55;6.57;;;4.50;;
4317;SDS011;2172;53.576;9.934;2023-06-14T02:22:25;6.30;;;5.00;;
4317;SDS011;2172;53.576;9.934;2023-06-14T02:24:53;11.37;;;5.17;;
4317;SDS011;2172;53.576;9.934;2023-06-14T02:27:20;6.93;;;4.43;;
4317;SDS011;2172;53.576;9.934;2023-06-14T02:29:49;4.53;;;4.13;;
4317;SDS011;2172;53.576;9.934;2023-06-14T02:32:17;5.50;;;4.20;;
4317;SDS011;2172;53.576;9.934;2023-06-14T02:34:44;5.63;;;4.40;;
4317;SDS011;2172;53.576;9.934;2023-06-14T02:37:15;9.13;;;4.17;;
4317;SDS011;2172;53.576;9.934;2023-06-14T02:39:43;7.40;;;4.57;;
4317;SDS011;2172;53.576;9.934;2023-06-14T02:42:10;9.57;;;4.40;;
4317;SDS011;2172;53.576;9.934;2023-06-14T02:44:38;5.20;;;4.53;;
4317;SDS011;2172;53.576;9.934;2023-06-14T02:47:07;8.07;;;5.00;;
4317;SDS011;2172;53.576;9.934;2023-06-14T02:49:35;8.20;;;4.70;;
4317;SDS011;2172;53.576;9.934;2023-06-14T02:52:02;5.87;;;5.27;;
4317;SDS011;2172;53.576;9.934;2023-06-14T02:54:30;6.20;;;4.33;;
4317;SDS011;2172;53.576;9.934;2023-06-14T02:56:58;7.80;;;4.87;;
4317;SDS011;2172;53.576;9.934;2023-06-14T02:59:26;5.70;;;5.00;;
4317;SDS011;2172;53.576;9.934;2023-06-14T03:01:55;6.43;;;4.57;;
4317;SDS011;2172;53.576;9.934;2023-06-14T03:04:24;5.10;;;4.60;;
4317;SDS011;2172;53.576;9.934;2023-06-14T03:06:52;8.23;;;4.90;;
4317;SDS011;2172;53.576;9.934;2023-06-14T03:09:21;7.20;;;4.70;;
4317;SDS011;2172;53.576;9.934;2023-06-14T03:11:48;6.07;;;5.00;;
4317;SDS011;2172;53.576;9.934;2023-06-14T03:14:35;8.30;;;4.60;;
4317;SDS011;2172;53.576;9.934;2023-06-14T03:17:04;8.93;;;4.77;;
4317;SDS011;2172;53.576;9.934;2023-06-14T03:19:36;6.50;;;5.07;;
4317;SDS011;2172;53.576;9.934;2023-06-14T03:22:07;7.47;;;5.10;;
4317;SDS011;2172;53.576;9.934;2023-06-14T03:24:38;6.07;;;5.27;;
4317;SDS011;2172;53.576;9.934;2023-06-14T03:27:10;6.60;;;4.90;;
4317;SDS011;2172;53.576;9.934;2023-06-14T03:29:41;6.07;;;4.67;;
4317;SDS011;2172;53.576;9.934;2023-06-14T03:32:10;6.53;;;5.00;;
4317;SDS011;2172;53.576;9.934;2023-06-14T03:34:41;9.30;;;5.00;;
4317;SDS011;2172;53.576;9.934;2023-06-14T03:37:15;7.27;;;4.90;;
4317;SDS011;2172;53.576;9.934;2023-06-14T03:39:45;8.87;;;4.80;;
4317;SDS011;2172;53.576;9.934;2023-06-14T03:42:18;13.47;;;5.20;;
4317;SDS011;2172;53.576;9.934;2023-06-14T03:44:46;7.07;;;5.13;;
4317;SDS011;2172;53.576;9.934;2023-06-14T03:47:15;7.47;;;4.80;;
4317;SDS011;2172;53.576;9.934;2023-06-14T03:49:44;11.03;;;5.43;;
4317;SDS011;2172;53.576;9.934;2023-06-14T03:52:12;6.80;;;4.60;;
4317;SDS011;2172;53.576;9.934;2023-06-14T03:54:43;10.00;;;6.10;;
4317;SDS011;2172;53.576;9.934;2023-06-14T03:57:12;7.40;;;4.90;;
4317;SDS011;2172;53.576;9.934;2023-06-14T03:59:41;6.93;;;5.63;;
4317;SDS011;2172;53.576;9.934;2023-06-14T04:02:08;9.23;;;5.40;;
4317;SDS011;2172;53.576;9.934;2023-06-14T04:04:36;7.57;;;4.27;;
4317;SDS011;2172;53.576;9.934;2023-06-14T04:07:05;6.93;;;4.43;;
4317;SDS011;2172;53.576;9.934;2023-06-14T04:09:34;8.80;;;5.93;;
4317;SDS011;2172;53.576;9.934;2023-06-14T04:12:01;6.17;;;5.00;;
4317;SDS011;2172;53.576;9.934;2023-06-14T04:14:31;9.80;;;5.77;;
4317;SDS011;2172;53.576;9.934;2023-06-14T04:17:00;5.00;;;4.50;;
4317;SDS011;2172;53.576;9.934;2023-06-14T04:19:27;8.27;;;5.27;;
4317;SDS011;2172;53.576;9.934;2023-06-14T04:21:55;5.67;;;4.83;;
4317;SDS011;2172;53.576;9.934;2023-06-14T04:24:26;7.87;;;5.50;;
4317;SDS011;2172;53.576;9.934;2023-06-14T04:26:57;8.07;;;5.27;;
4317;SDS011;2172;53.576;9.934;2023-06-14T04:29:27;12.90;;;5.50;;
4317;SDS011;2172;53.576;9.934;2023-06-14T04:32:00;9.10;;;5.77;;
4317;SDS011;2172;53.576;9.934;2023-06-14T04:34:27;9.37;;;5.37;;
4317;SDS011;2172;53.576;9.934;2023-06-14T04:36:57;6.57;;;5.30;;
4317;SDS011;2172;53.576;9.934;2023-06-14T04:39:32;8.03;;;4.90;;
4317;SDS011;2172;53.576;9.934;2023-06-14T04:42:01;6.63;;;4.93;;
4317;SDS011;2172;53.576;9.934;2023-06-14T04:44:29;10.07;;;5.60;;
4317;SDS011;2172;53.576;9.934;2023-06-14T04:47:00;10.57;;;5.30;;
4317;SDS011;2172;53.576;9.934;2023-06-14T04:49:28;8.67;;;5.20;;
4317;SDS011;2172;53.576;9.934;2023-06-14T04:51:57;8.23;;;5.17;;
4317;SDS011;2172;53.576;9.934;2023-06-14T04:54:33;12.60;;;6.03;;
4317;SDS011;2172;53.576;9.934;2023-06-14T04:57:03;8.87;;;5.07;;
4317;SDS011;2172;53.576;9.934;2023-06-14T04:59:31;7.90;;;5.70;;
4317;SDS011;2172;53.576;9.934;2023-06-14T05:02:01;7.20;;;5.30;;
4317;SDS011;2172;53.576;9.934;2023-06-14T05:04:29;8.90;;;5.33;;
4317;SDS011;2172;53.576;9.934;2023-06-14T05:06:58;8.13;;;5.30;;
4317;SDS011;2172;53.576;9.934;2023-06-14T05:09:26;5.47;;;4.77;;
4317;SDS011;2172;53.576;9.934;2023-06-14T05:11:55;7.70;;;5.00;;
4317;SDS011;2172;53.576;9.934;2023-06-14T05:14:26;10.33;;;5.60;;
4317;SDS011;2172;53.576;9.934;2023-06-14T05:16:54;8.57;;;4.63;;
4317;SDS011;2172;53.576;9.934;2023-06-14T05:19:22;8.80;;;5.30;;
4317;SDS011;2172;53.576;9.934;2023-06-14T05:21:50;5.70;;;4.50;;
4317;SDS011;2172;53.576;9.934;2023-06-14T05:24:18;10.03;;;5.30;;
4317;SDS011;2172;53.576;9.934;2023-06-14T05:26:46;6.87;;;5.03;;
4317;SDS011;2172;53.576;9.934;2023-06-14T05:29:17;9.87;;;5.97;;
4317;SDS011;2172;53.576;9.934;2023-06-14T05:31:45;5.97;;;5.37;;
4317;SDS011;2172;53.576;9.934;2023-06-14T05:34:13;6.90;;;5.63;;
4317;SDS011;2172;53.576;9.934;2023-06-14T05:36:40;10.47;;;5.10;;
4317;SDS011;2172;53.576;9.934;2023-06-14T05:39:08;6.87;;;5.43;;
4317;SDS011;2172;53.576;9.934;2023-06-14T05:41:35;6.47;;;4.57;;
4317;SDS011;2172;53.576;9.934;2023-06-14T05:44:03;7.20;;;4.60;;
4317;SDS011;2172;53.576;9.934;2023-06-14T05:46:32;8.10;;;5.50;;
4317;SDS011;2172;53.576;9.934;2023-06-14T05:48:59;9.77;;;5.27;;
4317;SDS011;2172;53.576;9.934;2023-06-14T05:51:27;7.67;;;5.30;;
4317;SDS011;2172;53.576;9.934;2023-06-14T05:53:55;6.53;;;4.67;;
4317;SDS011;2172;53.576;9.934;2023-06-14T05:56:22;7.83;;;4.57;;
4317;SDS011;2172;53.576;9.934;2023-06-14T05:58:50;7.00;;;4.87;;
4317;SDS011;2172;53.576;9.934;2023-06-14T06:01:18;7.20;;;5.03;;
4317;SDS011;2172;53.576;9.934;2023-06-14T06:03:47;6.23;;;4.80;;
4317;SDS011;2172;53.576;9.934;2023-06-14T06:06:14;7.03;;;5.20;;
4317;SDS011;2172;53.576;9.934;2023-06-14T06:08:42;6.40;;;4.60;;
4317;SDS011;2172;53.576;9.934;2023-06-14T06:11:10;6.03;;;4.07;;
4317;SDS011;2172;53.576;9.934;2023-06-14T06:13:37;6.30;;;4.50;;
4317;SDS011;2172;53.576;9.934;2023-06-14T06:16:06;8.13;;;4.60;;
4317;SDS011;2172;53.576;9.934;2023-06-14T06:18:33;10.13;;;5.20;;
4317;SDS011;2172;53.576;9.934;2023-06-14T06:21:03;9.80;;;4.93;;
4317;SDS011;2172;53.576;9.934;2023-06-14T06:23:30;7.70;;;4.80;;
4317;SDS011;2172;53.576;9.934;2023-06-14T06:25:58;5.70;;;4.50;;
4317;SDS011;2172;53.576;9.934;2023-06-14T06:28:25;12.10;;;5.10;;
4317;SDS011;2172;53.576;9.934;2023-06-14T06:30:53;5.87;;;4.63;;
4317;SDS011;2172;53.576;9.934;2023-06-14T06:33:21;10.37;;;3.80;;
4317;SDS011;2172;53.576;9.934;2023-06-14T06:35:48;4.23;;;3.83;;
4317;SDS011;2172;53.576;9.934;2023-06-14T06:38:17;4.53;;;4.13;;
4317;SDS011;2172;53.576;9.934;2023-06-14T06:40:45;5.00;;;4.07;;
4317;SDS011;2172;53.576;9.934;2023-06-14T06:43:12;6.23;;;3.90;;
4317;SDS011;2172;53.576;9.934;2023-06-14T06:45:45;5.63;;;4.10;;
4317;SDS011;2172;53.576;9.934;2023-06-14T06:48:13;4.20;;;3.80;;
4317;SDS011;2172;53.576;9.934;2023-06-14T06:50:41;7.00;;;3.70;;
4317;SDS011;2172;53.576;9.934;2023-06-14T06:53:08;7.33;;;4.77;;
4317;SDS011;2172;53.576;9.934;2023-06-14T06:55:37;12.20;;;4.23;;
4317;SDS011;2172;53.576;9.934;2023-06-14T06:58:04;5.33;;;3.77;;
4317;SDS011;2172;53.576;9.934;2023-06-14T07:00:32;4.80;;;3.80;;
4317;SDS011;2172;53.576;9.934;2023-06-14T07:02:59;6.57;;;4.27;;
4317;SDS011;2172;53.576;9.934;2023-06-14T07:05:29;6.77;;;3.73;;
4317;SDS011;2172;53.576;9.934;2023-06-14T07:07:56;7.57;;;4.50;;
4317;SDS011;2172;53.576;9.934;2023-06-14T07:10:24;6.77;;;4.00;;
4317;SDS011;2172;53.576;9.934;2023-06-14T07:12:53;8.43;;;4.33;;
4317;SDS011;2172;53.576;9.934;2023-06-14T07:15:21;5.80;;;3.60;;
4317;SDS011;2172;53.576;9.934;2023-06-14T07:17:48;3.83;;;3.53;;
4317;SDS011;2172;53.576;9.934;2023-06-14T07:20:16;5.43;;;4.20;;
4317;SDS011;2172;53.576;9.934;2023-06-14T07:22:44;4.10;;;3.70;;
4317;SDS011;2172;53.576;9.934;2023-06-14T07:25:12;4.80;;;3.73;;
4317;SDS011;2172;53.576;9.934;2023-06-14T07:27:40;4.90;;;3.73;;
4317;SDS011;2172;53.576;9.934;2023-06-14T07:30:09;10.03;;;3.90;;
4317;SDS011;2172;53.576;9.934;2023-06-14T07:32:37;3.63;;;3.30;;
4317;SDS011;2172;53.576;9.934;2023-06-14T07:35:05;6.23;;;3.23;;
4317;SDS011;2172;53.576;9.934;2023-06-14T07:37:33;4.87;;;3.70;;
4317;SDS011;2172;53.576;9.934;2023-06-14T07:40:01;5.37;;;3.87;;
4317;SDS011;2172;53.576;9.934;2023-06-14T07:42:32;3.90;;;3.60;;
4317;SDS011;2172;53.576;9.934;2023-06-14T07:45:00;7.90;;;3.60;;
4317;SDS011;2172;53.576;9.934;2023-06-14T07:47:29;4.93;;;3.53;;
4317;SDS011;2172;53.576;9.934;2023-06-14T07:49:57;5.83;;;3.90;;
4317;SDS011;2172;53.576;9.934;2023-06-14T07:52:25;5.53;;;3.73;;
4317;SDS011;2172;53.576;9.934;2023-06-14T07:54:53;3.90;;;3.50;;
4317;SDS011;2172;53.576;9.934;2023-06-14T07:57:20;4.00;;;3.70;;
4317;SDS011;2172;53.576;9.934;2023-06-14T07:59:48;4.23;;;3.33;;
4317;SDS011;2172;53.576;9.934;2023-06-14T08:02:16;4.83;;;3.43;;
4317;SDS011;2172;53.576;9.934;2023-06-14T08:04:45;5.17;;;3.43;;
4317;SDS011;2172;53.576;9.934;2023-06-14T08:07:13;4.73;;;4.20;;
4317;SDS011;2172;53.576;9.934;2023-06-14T08:09:41;5.20;;;3.27;;
4317;SDS011;2172;53.576;9.934;2023-06-14T08:12:08;6.17;;;4.23;;
4317;SDS011;2172;53.576;9.934;2023-06-14T08:14:36;3.57;;;3.23;;
4317;SDS011;2172;53.576;9.934;2023-06-14T08:17:05;4.50;;;4.03;;
4317;SDS011;2172;53.576;9.934;2023-06-14T08:19:32;4.03;;;3.40;;
4317;SDS011;2172;53.576;9.934;2023-06-14T08:22:01;6.27;;;3.80;;
4317;SDS011;2172;53.576;9.934;2023-06-14T08:24:29;5.30;;;4.13;;
4317;SDS011;2172;53.576;9.934;2023-06-14T08:26:57;5.43;;;3.90;;
4317;SDS011;2172;53.576;9.934;2023-06-14T08:29:26;5.40;;;3.80;;
4317;SDS011;2172;53.576;9.934;2023-06-14T08:31:55;5.00;;;4.30;;
4317;SDS011;2172;53.576;9.934;2023-06-14T08:34:23;12.53;;;4.17;;
4317;SDS011;2172;53.576;9.934;2023-06-14T08:36:50;5.43;;;4.27;;
4317;SDS011;2172;53.576;9.934;2023-06-14T08:39:19;6.73;;;3.97;;
4317;SDS011;2172;53.576;9.934;2023-06-14T08:41:47;10.93;;;4.33;;
4317;SDS011;2172;53.576;9.934;2023-06-14T08:44:15;7.30;;;4.67;;
4317;SDS011;2172;53.576;9.934;2023-06-14T08:46:43;4.70;;;4.00;;
4317;SDS011;2172;53.576;9.934;2023-06-14T08:49:11;4.67;;;3.37;;
4317;SDS011;2172;53.576;9.934;2023-06-14T08:51:39;4.17;;;3.77;;
4317;SDS011;2172;53.576;9.934;2023-06-14T08:54:06;5.53;;;4.30;;
4317;SDS011;2172;53.576;9.934;2023-06-14T08:56:35;4.30;;;3.90;;
4317;SDS011;2172;53.576;9.934;2023-06-14T08:59:06;5.40;;;4.00;;
4317;SDS011;2172;53.576;9.934;2023-06-14T09:01:36;4.53;;;3.97;;
4317;SDS011;2172;53.576;9.934;2023-06-14T09:04:05;6.07;;;4.27;;
4317;SDS011;2172;53.576;9.934;2023-06-14T09:06:33;6.93;;;4.20;;
4317;SDS011;2172;53.576;9.934;2023-06-14T09:09:04;4.90;;;3.80;;
4317;SDS011;2172;53.576;9.934;2023-06-14T09:11:32;6.20;;;4.53;;
4317;SDS011;2172;53.576;9.934;2023-06-14T09:14:02;5.47;;;4.60;;
4317;SDS011;2172;53.576;9.934;2023-06-14T09:16:31;7.70;;;4.13;;
4317;SDS011;2172;53.576;9.934;2023-06-14T09:18:59;4.10;;;3.70;;
4317;SDS011;2172;53.576;9.934;2023-06-14T09:21:27;4.40;;;3.90;;
4317;SDS011;2172;53.576;9.934;2023-06-14T09:23:55;6.23;;;4.17;;
4317;SDS011;2172;53.576;9.934;2023-06-14T09:26:22;6.27;;;4.33;;
4317;SDS011;2172;53.576;9.934;2023-06-14T09:28:53;5.43;;;4.40;;
4317;SDS011;2172;53.576;9.934;2023-06-14T09:31:22;8.37;;;4.57;;
4317;SDS011;2172;53.576;9.934;2023-06-14T09:33:50;10.53;;;4.23;;
4317;SDS011;2172;53.576;9.934;2023-06-14T09:36:18;4.80;;;4.30;;
4317;SDS011;2172;53.576;9.934;2023-06-14T09:38:52;8.47;;;4.50;;
4317;SDS011;2172;53.576;9.934;2023-06-14T09:41:20;8.30;;;4.27;;
4317;SDS011;2172;53.576;9.934;2023-06-14T09:43:47;8.77;;;4.17;;
4317;SDS011;2172;53.576;9.934;2023-06-14T09:46:15;7.23;;;3.70;;
4317;SDS011;2172;53.576;9.934;2023-06-14T09:48:44;6.80;;;4.40;;
4317;SDS011;2172;53.576;9.934;2023-06-14T09:51:13;4.80;;;4.30;;
4317;SDS011;2172;53.576;9.934;2023-06-14T09:53:41;7.03;;;4.23;;
4317;SDS011;2172;53.576;9.934;2023-06-14T09:56:10;7.70;;;4.40;;
4317;SDS011;2172;53.576;9.934;2023-06-14T09:58:38;6.87;;;4.20;;
4317;SDS011;2172;53.576;9.934;2023-06-14T10:01:06;5.20;;;4.70;;
4317;SDS011;2172;53.576;9.934;2023-06-14T10:03:39;9.93;;;4.60;;
4317;SDS011;2172;53.576;9.934;2023-06-14T10:06:08;7.00;;;4.57;;
4317;SDS011;2172;53.576;9.934;2023-06-14T10:08:36;7.17;;;4.17;;
4317;SDS011;2172;53.576;9.934;2023-06-14T10:11:04;5.33;;;4.40;;
4317;SDS011;2172;53.576;9.934;2023-06-14T10:13:32;6.03;;;5.10;;
4317;SDS011;2172;53.576;9.934;2023-06-14T10:16:04;9.70;;;4.70;;
4317;SDS011;2172;53.576;9.934;2023-06-14T10:18:35;5.20;;;4.60;;
4317;SDS011;2172;53.576;9.934;2023-06-14T10:21:21;5.40;;;4.47;;
4317;SDS011;2172;53.576;9.934;2023-06-14T10:23:51;6.93;;;4.67;;
4317;SDS011;2172;53.576;9.934;2023-06-14T10:26:19;6.00;;;4.93;;
4317;SDS011;2172;53.576;9.934;2023-06-14T10:28:56;4.80;;;4.40;;
4317;SDS011;2172;53.576;9.934;2023-06-14T10:31:39;7.23;;;4.73;;
4317;SDS011;2172;53.576;9.934;2023-06-14T10:34:08;11.70;;;5.30;;
4317;SDS011;2172;53.576;9.934;2023-06-14T10:36:37;6.53;;;4.60;;
4317;SDS011;2172;53.576;9.934;2023-06-14T10:39:07;5.70;;;4.53;;
4317;SDS011;2172;53.576;9.934;2023-06-14T10:41:38;5.63;;;4.83;;
4317;SDS011;2172;53.576;9.934;2023-06-14T10:47:26;4.70;;;4.30;;
4317;SDS011;2172;53.576;9.934;2023-06-14T10:49:55;7.97;;;4.70;;
4317;SDS011;2172;53.576;9.934;2023-06-14T10:52:26;8.40;;;4.20;;
4317;SDS011;2172;53.576;9.934;2023-06-14T10:55:04;5.70;;;4.80;;
4317;SDS011;2172;53.576;9.934;2023-06-14T10:57:35;8.83;;;4.20;;
4317;SDS011;2172;53.576;9.934;2023-06-14T11:00:04;5.57;;;4.30;;
4317;SDS011;2172;53.576;9.934;2023-06-14T11:02:46;5.43;;;4.40;;
4317;SDS011;2172;53.576;9.934;2023-06-14T11:05:39;8.97;;;4.80;;
4317;SDS011;2172;53.576;9.934;2023-06-14T11:11:32;5.27;;;4.73;;
4317;SDS011;2172;53.576;9.934;2023-06-14T11:14:00;7.00;;;4.63;;
4317;SDS011;2172;53.576;9.934;2023-06-14T11:16:28;4.70;;;4.10;;
4317;SDS011;2172;53.576;9.934;2023-06-14T11:18:59;9.93;;;4.77;;
4317;SDS011;2172;53.576;9.934;2023-06-14T11:21:28;5.43;;;4.93;;
4317;SDS011;2172;53.576;9.934;2023-06-14T11:23:59;7.00;;;4.73;;
4317;SDS011;2172;53.576;9.934;2023-06-14T11:26:27;7.13;;;4.57;;
4317;SDS011;2172;53.576;9.934;2023-06-14T11:28:55;5.93;;;4.70;;
4317;SDS011;2172;53.576;9.934;2023-06-14T11:31:23;6.37;;;4.60;;
4317;SDS011;2172;53.576;9.934;2023-06-14T11:33:53;5.33;;;4.60;;
4317;SDS011;2172;53.576;9.934;2023-06-14T11:36:22;5.20;;;4.67;;
4317;SDS011;2172;53.576;9.934;2023-06-14T11:38:49;9.03;;;4.33;;
4317;SDS011;2172;53.576;9.934;2023-06-14T11:41:18;4.43;;;4.03;;
4317;SDS011;2172;53.576;9.934;2023-06-14T11:43:46;7.20;;;4.50;;
4317;SDS011;2172;53.576;9.934;2023-06-14T11:46:13;6.60;;;4.50;;
4317;SDS011;2172;53.576;9.934;2023-06-14T11:48:43;5.53;;;4.30;;
4317;SDS011;2172;53.576;9.934;2023-06-14T11:51:10;5.37;;;4.00;;
4317;SDS011;2172;53.576;9.934;2023-06-14T11:53:38;6.03;;;4.80;;
4317;SDS011;2172;53.576;9.934;2023-06-14T11:56:06;10.73;;;4.73;;
4317;SDS011;2172;53.576;9.934;2023-06-14T11:58:35;7.47;;;4.73;;
4317;SDS011;2172;53.576;9.934;2023-06-14T12:01:04;6.07;;;4.57;;
4317;SDS011;2172;53.576;9.934;2023-06-14T12:03:32;5.20;;;4.70;;
4317;SDS011;2172;53.576;9.934;2023-06-14T12:06:04;4.97;;;4.57;;
4317;SDS011;2172;53.576;9.934;2023-06-14T12:08:36;8.93;;;4.57;;
4317;SDS011;2172;53.576;9.934;2023-06-14T12:11:10;6.93;;;4.37;;
4317;SDS011;2172;53.576;9.934;2023-06-14T12:13:40;5.03;;;4.30;;
4317;SDS011;2172;53.576;9.934;2023-06-14T12:16:08;5.93;;;4.83;;
4317;SDS011;2172;53.576;9.934;2023-06-14T12:18:37;7.30;;;4.50;;
4317;SDS011;2172;53.576;9.934;2023-06-14T12:21:06;4.47;;;4.10;;
4317;SDS011;2172;53.576;9.934;2023-06-14T12:23:39;8.40;;;4.77;;
4317;SDS011;2172;53.576;9.934;2023-06-14T12:26:09;6.80;;;3.93;;
4317;SDS011;2172;53.576;9.934;2023-06-14T12:28:40;6.50;;;4.50;;
4317;SDS011;2172;53.576;9.934;2023-06-14T12:31:09;5.50;;;3.70;;
4317;SDS011;2172;53.576;9.934;2023-06-14T12:33:37;5.60;;;4.20;;
4317;SDS011;2172;53.576;9.934;2023-06-14T12:36:06;5.77;;;4.93;;
4317;SDS011;2172;53.576;9.934;2023-06-14T12:38:35;9.87;;;4.47;;
4317;SDS011;2172;53.576;9.934;2023-06-14T12:41:02;4.93;;;4.20;;
4317;SDS011;2172;53.576;9.934;2023-06-14T12:43:31;9.43;;;4.90;;
4317;SDS011;2172;53.576;9.934;2023-06-14T12:45:59;4.90;;;4.40;;
4317;SDS011;2172;53.576;9.934;2023-06-14T12:48:27;4.73;;;4.23;;
4317;SDS011;2172;53.576;9.934;2023-06-14T12:50:56;6.57;;;4.23;;
4317;SDS011;2172;53.576;9.934;2023-06-14T12:53:23;11.73;;;4.70;;
4317;SDS011;2172;53.576;9.934;2023-06-14T12:55:51;6.90;;;4.50;;
4317;SDS011;2172;53.576;9.934;2023-06-14T12:58:18;7.73;;;4.40;;
4317;SDS011;2172;53.576;9.934;2023-06-14T13:00:46;5.13;;;4.57;;
4317;SDS011;2172;53.576;9.934;2023-06-14T13:03:15;4.63;;;4.10;;
4317;SDS011;2172;53.576;9.934;2023-06-14T13:05:42;5.70;;;4.00;;
4317;SDS011;2172;53.576;9.934;2023-06-14T13:08:10;4.43;;;4.00;;
4317;SDS011;2172;53.576;9.934;2023-06-14T13:10:38;4.90;;;4.20;;
4317;SDS011;2172;53.576;9.934;2023-06-14T13:13:05;6.20;;;4.40;;
4317;SDS011;2172;53.576;9.934;2023-06-14T13:15:33;8.53;;;4.90;;
4317;SDS011;2172;53.576;9.934;2023-06-14T13:18:01;6.20;;;4.20;;
4317;SDS011;2172;53.576;9.934;2023-06-14T13:20:30;5.07;;;4.60;;
4317;SDS011;2172;53.576;9.934;2023-06-14T13:22:58;7.50;;;4.97;;
4317;SDS011;2172;53.576;9.934;2023-06-14T13:25:27;6.50;;;4.10;;
4317;SDS011;2172;53.576;9.934;2023-06-14T13:27:54;7.27;;;5.20;;
4317;SDS011;2172;53.576;9.934;2023-06-14T13:30:22;4.87;;;3.80;;
4317;SDS011;2172;53.576;9.934;2023-06-14T13:32:49;7.43;;;4.30;;
4317;SDS011;2172;53.576;9.934;2023-06-14T13:35:17;5.27;;;4.20;;
4317;SDS011;2172;53.576;9.934;2023-06-14T13:37:46;6.93;;;4.63;;
4317;SDS011;2172;53.576;9.934;2023-06-14T13:40:13;6.43;;;4.20;;
4317;SDS011;2172;53.576;9.934;2023-06-14T13:42:41;7.60;;;4.60;;
4317;SDS011;2172;53.576;9.934;2023-06-14T13:45:09;4.93;;;4.07;;
4317;SDS011;2172;53.576;9.934;2023-06-14T13:47:37;5.10;;;4.60;;
4317;SDS011;2172;53.576;9.934;2023-06-14T13:50:05;7.73;;;4.33;;
4317;SDS011;2172;53.576;9.934;2023-06-14T13:52:33;4.63;;;3.93;;
4317;SDS011;2172;53.576;9.934;2023-06-14T13:55:02;6.40;;;4.30;;
4317;SDS011;2172;53.576;9.934;2023-06-14T13:57:30;6.40;;;4.40;;
4317;SDS011;2172;53.576;9.934;2023-06-14T13:59:58;9.03;;;4.37;;
4317;SDS011;2172;53.576;9.934;2023-06-14T14:02:37;9.33;;;4.20;;
4317;SDS011;2172;53.576;9.934;2023-06-14T14:05:06;5.70;;;4.10;;
4317;SDS011;2172;53.576;9.934;2023-06-14T14:07:34;8.90;;;4.30;;
4317;SDS011;2172;53.576;9.934;2023-06-14T14:10:05;9.03;;;4.50;;
4317;SDS011;2172;53.576;9.934;2023-06-14T14:12:34;4.63;;;4.17;;
4317;SDS011;2172;53.576;9.934;2023-06-14T14:15:04;6.20;;;4.53;;
4317;SDS011;2172;53.576;9.934;2023-06-14T14:17:37;5.33;;;4.13;;
4317;SDS011;2172;53.576;9.934;2023-06-14T14:20:05;4.23;;;3.80;;
4317;SDS011;2172;53.576;9.934;2023-06-14T14:22:33;5.60;;;4.50;;
4317;SDS011;2172;53.576;9.934;2023-06-14T14:25:01;8.20;;;4.00;;
4317;SDS011;2172;53.576;9.934;2023-06-14T14:27:30;7.53;;;4.20;;
4317;SDS011;2172;53.576;9.934;2023-06-14T14:29:57;5.50;;;4.03;;
4317;SDS011;2172;53.576;9.934;2023-06-14T14:32:25;6.70;;;3.90;;
4317;SDS011;2172;53.576;9.934;2023-06-14T14:34:52;6.13;;;3.87;;
4317;SDS011;2172;53.576;9.934;2023-06-14T14:37:21;4.53;;;4.07;;
4317;SDS011;2172;53.576;9.934;2023-06-14T14:39:49;8.17;;;3.50;;
4317;SDS011;2172;53.576;9.934;2023-06-14T14:42:16;5.50;;;3.77;;
4317;SDS011;2172;53.576;9.934;2023-06-14T14:44:46;6.37;;;4.20;;
4317;SDS011;2172;53.576;9.934;2023-06-14T14:47:13;5.40;;;3.80;;
4317;SDS011;2172;53.576;9.934;2023-06-14T14:49:41;9.30;;;3.53;;
4317;SDS011;2172;53.576;9.934;2023-06-14T14:52:08;6.30;;;4.10;;
4317;SDS011;2172;53.576;9.934;2023-06-14T14:54:38;6.03;;;4.40;;
4317;SDS011;2172;53.576;9.934;2023-06-14T14:57:05;5.93;;;4.53;;
4317;SDS011;2172;53.576;9.934;2023-06-14T14:59:33;6.70;;;4.47;;
4317;SDS011;2172;53.576;9.934;2023-06-14T15:02:02;7.60;;;4.30;;
4317;SDS011;2172;53.576;9.934;2023-06-14T15:04:30;11.30;;;4.13;;
4317;SDS011;2172;53.576;9.934;2023-06-14T15:06:58;12.00;;;4.80;;
4317;SDS011;2172;53.576;9.934;2023-06-14T15:09:25;5.93;;;4.57;;
4317;SDS011;2172;53.576;9.934;2023-06-14T15:11:53;5.43;;;4.23;;
4317;SDS011;2172;53.576;9.934;2023-06-14T15:14:20;4.40;;;3.87;;
4317;SDS011;2172;53.576;9.934;2023-06-14T15:16:48;6.97;;;4.20;;
4317;SDS011;2172;53.576;9.934;2023-06-14T15:19:18;6.33;;;4.03;;
4317;SDS011;2172;53.576;9.934;2023-06-14T15:21:46;5.70;;;3.83;;
4317;SDS011;2172;53.576;9.934;2023-06-14T15:24:13;6.60;;;4.30;;
4317;SDS011;2172;53.576;9.934;2023-06-14T15:26:41;5.87;;;4.30;;
4317;SDS011;2172;53.576;9.934;2023-06-14T15:29:08;4.90;;;3.53;;
4317;SDS011;2172;53.576;9.934;2023-06-14T15:31:35;6.80;;;4.30;;